Private Wetterstation Sandau
Wetterdaten: Woche 22.10.12 - 28.10.12 (KW43)
Datum Zeit Temp. A. Feuchte A. Luftdruck Regen Wind Richtung Taupunkt Windchill
22.10.2012 00:00 13,1 C 91 % 1023,1 hPa 0,0 l/m 9,7 km/h (2 Bft) O 11,6 C 13,1 C
22.10.2012 01:00 12,8 C 92 % 1023,3 hPa 0,0 l/m 5,6 km/h (1 Bft) O-NO 11,5 C 12,8 C
22.10.2012 02:00 12,8 C 91 % 1023,5 hPa 0,0 l/m 5,8 km/h (2 Bft) O-SO 11,4 C 12,8 C
22.10.2012 03:00 12,8 C 91 % 1023,7 hPa 0,0 l/m 5,2 km/h (1 Bft) O-SO 11,4 C 12,8 C
22.10.2012 04:00 12,8 C 91 % 1023,6 hPa 0,0 l/m 6,0 km/h (2 Bft) O-SO 11,3 C 12,8 C
22.10.2012 05:00 12,8 C 92 % 1023,6 hPa 0,0 l/m 4,3 km/h (1 Bft) O-SO 11,4 C 12,8 C
22.10.2012 06:00 12,9 C 91 % 1024,0 hPa 0,0 l/m 3,6 km/h (1 Bft) SO 11,5 C 12,9 C
22.10.2012 07:00 12,9 C 91 % 1024,5 hPa 0,0 l/m 4,4 km/h (1 Bft) O-SO 11,5 C 12,9 C
22.10.2012 08:00 12,8 C 91 % 1024,8 hPa 0,0 l/m 3,3 km/h (1 Bft) O-NO 11,5 C 12,8 C
22.10.2012 09:00 12,9 C 92 % 1025,1 hPa 0,0 l/m 4,7 km/h (1 Bft) O-SO 11,6 C 12,9 C
22.10.2012 10:00 13,1 C 91 % 1025,1 hPa 0,0 l/m 3,8 km/h (1 Bft) O-NO 11,7 C 13,1 C
22.10.2012 11:00 13,5 C 91 % 1025,4 hPa 0,0 l/m 6,4 km/h (2 Bft) O-SO 12,0 C 13,5 C
22.10.2012 12:00 13,7 C 90 % 1025,6 hPa 0,0 l/m 6,9 km/h (2 Bft) SO 12,0 C 13,7 C
22.10.2012 13:00 13,8 C 89 % 1025,5 hPa 0,0 l/m 4,9 km/h (1 Bft) O-SO 12,1 C 13,8 C
22.10.2012 14:00 13,7 C 89 % 1025,6 hPa 0,0 l/m 6,8 km/h (2 Bft) SO 11,9 C 13,7 C
22.10.2012 15:00 13,6 C 88 % 1025,9 hPa 0,0 l/m 4,9 km/h (1 Bft) SO 11,6 C 13,6 C
22.10.2012 16:00 13,5 C 87 % 1025,9 hPa 0,0 l/m 4,8 km/h (1 Bft) O-SO 11,4 C 13,5 C
22.10.2012 17:00 13,3 C 88 % 1026,0 hPa 0,0 l/m 4,1 km/h (1 Bft) SO 11,3 C 13,3 C
22.10.2012 18:00 13,1 C 88 % 1026,2 hPa 0,0 l/m 2,9 km/h (1 Bft) SO 11,2 C 13,1 C
22.10.2012 19:00 12,9 C 89 % 1026,5 hPa 0,0 l/m 4,8 km/h (1 Bft) SO 11,2 C 12,9 C
22.10.2012 20:00 12,7 C 90 % 1026,7 hPa 0,0 l/m 3,2 km/h (1 Bft) O-SO 11,1 C 12,7 C
22.10.2012 21:00 12,5 C 91 % 1026,8 hPa 0,0 l/m 2,4 km/h (1 Bft) O-SO 11,0 C 12,5 C
22.10.2012 22:00 12,4 C 92 % 1027,0 hPa 0,0 l/m 1,4 km/h (1 Bft) O 11,1 C 12,4 C
22.10.2012 23:00 12,3 C 92 % 1027,2 hPa 0,0 l/m 1,8 km/h (1 Bft) O-SO 11,1 C 12,3 C
23.10.2012 00:00 12,2 C 92 % 1027,3 hPa 0,0 l/m 0,8 km/h (0 Bft) O-SO 11,0 C 12,2 C
23.10.2012 01:00 12,1 C 92 % 1027,2 hPa 0,0 l/m 3,0 km/h (1 Bft) S-SO 10,8 C 12,1 C
23.10.2012 02:00 11,9 C 90 % 1027,2 hPa 0,0 l/m 3,5 km/h (1 Bft) O-SO 10,4 C 11,9 C
23.10.2012 03:00 11,9 C 89 % 1027,3 hPa 0,0 l/m 0,8 km/h (0 Bft) SO 10,1 C 11,9 C
23.10.2012 04:00 11,8 C 89 % 1027,0 hPa 0,0 l/m 1,8 km/h (1 Bft) S-SO 10,0 C 11,8 C
23.10.2012 05:00 11,8 C 90 % 1027,2 hPa 0,0 l/m 1,7 km/h (1 Bft) SO 10,1 C 11,8 C
23.10.2012 06:00 11,7 C 90 % 1027,0 hPa 0,0 l/m 1,8 km/h (1 Bft) SO 10,1 C 11,7 C
23.10.2012 07:00 11,6 C 91 % 1027,2 hPa 0,0 l/m 0,1 km/h (0 Bft) SO 10,1 C 11,6 C
23.10.2012 08:00 11,6 C 92 % 1027,8 hPa 0,0 l/m 2,3 km/h (1 Bft) O-SO 10,3 C 11,6 C
23.10.2012 09:00 11,5 C 92 % 1028,1 hPa 0,0 l/m 1,8 km/h (1 Bft) O-NO 10,2 C 11,5 C
23.10.2012 10:00 11,7 C 92 % 1028,4 hPa 0,0 l/m 3,0 km/h (1 Bft) O-SO 10,4 C 11,7 C
23.10.2012 11:00 11,9 C 91 % 1028,5 hPa 0,0 l/m 3,1 km/h (1 Bft) O-SO 10,5 C 11,9 C
23.10.2012 12:00 12,0 C 91 % 1028,3 hPa 0,0 l/m 4,7 km/h (1 Bft) O-SO 10,5 C 12,0 C
23.10.2012 13:00 12,2 C 90 % 1028,0 hPa 0,0 l/m 3,5 km/h (1 Bft) SO 10,7 C 12,2 C
23.10.2012 14:00 12,2 C 90 % 1027,7 hPa 0,0 l/m 3,1 km/h (1 Bft) O-SO 10,6 C 12,2 C
23.10.2012 15:00 12,3 C 89 % 1027,5 hPa 0,0 l/m 3,5 km/h (1 Bft) O-SO 10,5 C 12,3 C
23.10.2012 16:00 12,1 C 89 % 1027,4 hPa 0,0 l/m 0,9 km/h (0 Bft) O-SO 10,4 C 12,1 C
23.10.2012 17:00 12,0 C 89 % 1027,1 hPa 0,0 l/m 0,4 km/h (0 Bft) SO 10,2 C 12,0 C
23.10.2012 18:00 11,9 C 89 % 1027,2 hPa 0,0 l/m 0,0 km/h (0 Bft) N 10,2 C 11,9 C
23.10.2012 19:00 11,8 C 90 % 1027,1 hPa 0,0 l/m 0,9 km/h (0 Bft) O-SO 10,3 C 11,8 C
23.10.2012 20:00 11,7 C 90 % 1026,9 hPa 0,0 l/m 0,1 km/h (0 Bft) O 10,1 C 11,7 C
23.10.2012 21:00 11,5 C 90 % 1026,5 hPa 0,0 l/m 0,0 km/h (0 Bft) N 10,0 C 11,5 C
23.10.2012 22:00 11,5 C 90 % 1026,3 hPa 0,0 l/m 0,0 km/h (0 Bft) N 9,9 C 11,5 C
23.10.2012 23:00 11,4 C 91 % 1026,1 hPa 0,0 l/m 0,2 km/h (0 Bft) O 9,9 C 11,4 C
24.10.2012 00:00 11,2 C 91 % 1025,7 hPa 0,0 l/m 1,2 km/h (1 Bft) NO 9,8 C 11,2 C
24.10.2012 01:00 11,3 C 91 % 1025,1 hPa 0,0 l/m 0,7 km/h (0 Bft) NO 9,9 C 11,3 C
24.10.2012 02:00 11,3 C 91 % 1024,8 hPa 0,0 l/m 0,0 km/h (0 Bft) N 9,9 C 11,3 C
24.10.2012 03:00 11,2 C 91 % 1024,3 hPa 0,0 l/m 0,3 km/h (0 Bft) N-NO 9,8 C 11,2 C
24.10.2012 04:00 11,2 C 91 % 1023,9 hPa 0,0 l/m 1,0 km/h (0 Bft) O-NO 9,8 C 11,2 C
24.10.2012 05:00 11,1 C 91 % 1023,2 hPa 0,0 l/m 1,2 km/h (1 Bft) O-NO 9,7 C 11,1 C
24.10.2012 06:00 11,0 C 92 % 1022,7 hPa 0,0 l/m 2,2 km/h (1 Bft) O-SO 9,7 C 11,0 C
24.10.2012 07:00 10,9 C 92 % 1022,7 hPa 0,0 l/m 0,2 km/h (0 Bft) O-SO 9,7 C 10,9 C
24.10.2012 08:00 10,9 C 92 % 1022,8 hPa 0,0 l/m 0,0 km/h (0 Bft) N 9,7 C 10,9 C
24.10.2012 09:00 11,1 C 92 % 1022,7 hPa 0,0 l/m 0,1 km/h (0 Bft) O-SO 9,9 C 11,1 C
24.10.2012 10:00 11,7 C 91 % 1022,5 hPa 0,0 l/m 0,6 km/h (0 Bft) N-NW 10,3 C 11,7 C
24.10.2012 11:00 12,0 C 90 % 1022,4 hPa 0,0 l/m 1,9 km/h (1 Bft) N 10,3 C 12,0 C
24.10.2012 12:00 12,7 C 88 % 1022,1 hPa 0,0 l/m 0,7 km/h (0 Bft) W 10,9 C 12,7 C
24.10.2012 13:00 13,0 C 87 % 1021,6 hPa 0,0 l/m 1,0 km/h (0 Bft) NW 10,8 C 13,0 C
24.10.2012 14:00 12,7 C 87 % 1021,1 hPa 0,0 l/m 0,6 km/h (0 Bft) NW 10,5 C 12,7 C
24.10.2012 15:00 12,5 C 88 % 1020,8 hPa 0,0 l/m 1,7 km/h (1 Bft) W-SW 10,5 C 12,5 C
24.10.2012 16:00 12,3 C 89 % 1020,3 hPa 0,0 l/m 2,9 km/h (1 Bft) W-NW 10,4 C 12,3 C
24.10.2012 17:00 12,0 C 89 % 1020,0 hPa 0,0 l/m 1,6 km/h (1 Bft) W-NW 10,2 C 12,0 C
24.10.2012 18:00 11,7 C 90 % 1020,0 hPa 0,0 l/m 1,7 km/h (1 Bft) NW 10,1 C 11,7 C
24.10.2012 19:00 11,5 C 91 % 1019,8 hPa 0,0 l/m 1,2 km/h (1 Bft) W-NW 10,0 C 11,5 C
24.10.2012 20:00 11,3 C 91 % 1019,7 hPa 0,0 l/m 1,5 km/h (1 Bft) W-NW 9,9 C 11,3 C
24.10.2012 21:00 11,2 C 92 % 1019,3 hPa 0,0 l/m 1,4 km/h (1 Bft) W-NW 9,9 C 11,2 C
24.10.2012 22:00 11,2 C 92 % 1019,0 hPa 0,0 l/m 1,1 km/h (1 Bft) W-SW 9,9 C 11,2 C
24.10.2012 23:00 10,9 C 92 % 1018,6 hPa 0,0 l/m 1,1 km/h (1 Bft) NW 9,7 C 10,9 C
25.10.2012 00:00 10,8 C 92 % 1018,2 hPa 0,0 l/m 0,9 km/h (0 Bft) W-NW 9,6 C 10,8 C
25.10.2012 01:00 10,6 C 93 % 1017,8 hPa 0,0 l/m 1,4 km/h (1 Bft) W-NW 9,5 C 10,6 C
25.10.2012 02:00 10,6 C 93 % 1017,3 hPa 0,0 l/m 3,1 km/h (1 Bft) W-NW 9,5 C 10,6 C
25.10.2012 03:00 10,1 C 92 % 1017,0 hPa 0,0 l/m 6,1 km/h (2 Bft) N-NW 8,9 C 10,0 C
25.10.2012 04:00 9,5 C 90 % 1016,4 hPa 0,0 l/m 3,8 km/h (1 Bft) N-NW 7,9 C 9,3 C
25.10.2012 05:00 8,9 C 90 % 1015,8 hPa 0,0 l/m 3,5 km/h (1 Bft) W-NW 7,3 C 8,8 C
25.10.2012 06:00 8,1 C 89 % 1015,3 hPa 0,0 l/m 2,2 km/h (1 Bft) W-SW 6,4 C 8,1 C
25.10.2012 07:00 8,2 C 89 % 1014,6 hPa 0,0 l/m 2,5 km/h (1 Bft) W-SW 6,5 C 8,0 C
25.10.2012 08:00 8,5 C 90 % 1014,2 hPa 0,0 l/m 7,4 km/h (2 Bft) W-SW 6,9 C 7,5 C
25.10.2012 09:00 9,0 C 90 % 1013,9 hPa 0,0 l/m 8,5 km/h (2 Bft) W-SW 7,4 C 7,8 C
25.10.2012 10:00 10,0 C 88 % 1013,3 hPa 0,0 l/m 13,2 km/h (3 Bft) W-SW 8,1 C 9,2 C
25.10.2012 11:00 10,1 C 90 % 1012,7 hPa 0,0 l/m 7,4 km/h (2 Bft) W 8,5 C 9,6 C
25.10.2012 12:00 11,4 C 87 % 1011,9 hPa 0,0 l/m 10,2 km/h (2 Bft) W-NW 9,3 C 11,4 C
25.10.2012 13:00 12,4 C 80 % 1011,0 hPa 0,0 l/m 10,0 km/h (2 Bft) W-NW 9,0 C 12,4 C
25.10.2012 14:00 12,4 C 75 % 1010,1 hPa 0,0 l/m 13,0 km/h (3 Bft) W-NW 8,1 C 12,4 C
25.10.2012 15:00 11,6 C 78 % 1009,9 hPa 0,0 l/m 11,0 km/h (2 Bft) W-NW 7,9 C 11,6 C
25.10.2012 16:00 10,0 C 85 % 1009,7 hPa 0,0 l/m 8,7 km/h (2 Bft) NW 7,5 C 9,1 C
25.10.2012 17:00 9,7 C 85 % 1009,5 hPa 0,0 l/m 10,3 km/h (2 Bft) W 7,3 C 8,3 C
25.10.2012 18:00 9,5 C 82 % 1009,7 hPa 0,0 l/m 8,2 km/h (2 Bft) NW 6,5 C 8,4 C
25.10.2012 19:00 8,8 C 82 % 1009,8 hPa 0,0 l/m 10,7 km/h (2 Bft) W-NW 5,9 C 7,1 C
25.10.2012 20:00 8,1 C 82 % 1010,1 hPa 0,0 l/m 12,9 km/h (3 Bft) W-NW 5,3 C 6,0 C
25.10.2012 21:00 7,3 C 83 % 1010,5 hPa 0,0 l/m 10,0 km/h (2 Bft) W-NW 4,7 C 5,6 C
25.10.2012 22:00 7,4 C 85 % 1010,7 hPa 0,0 l/m 8,9 km/h (2 Bft) W-NW 5,0 C 5,9 C
25.10.2012 23:00 6,8 C 85 % 1010,9 hPa 0,0 l/m 7,0 km/h (2 Bft) W-NW 4,5 C 5,5 C
26.10.2012 00:00 6,8 C 85 % 1011,1 hPa 0,0 l/m 8,9 km/h (2 Bft) W 4,6 C 5,3 C
26.10.2012 01:00 6,9 C 83 % 1011,8 hPa 0,0 l/m 7,9 km/h (2 Bft) NW 4,1 C 5,6 C
26.10.2012 02:00 6,1 C 73 % 1012,6 hPa 0,0 l/m 8,2 km/h (2 Bft) N-NO 1,6 C 4,6 C
26.10.2012 03:00 4,6 C 75 % 1013,3 hPa 0,0 l/m 6,5 km/h (2 Bft) N-NW 0,6 C 3,3 C
26.10.2012 04:00 3,8 C 78 % 1014,1 hPa 0,0 l/m 5,0 km/h (1 Bft) N-NO 0,3 C 2,9 C
26.10.2012 05:00 2,8 C 80 % 1014,6 hPa 0,0 l/m 2,0 km/h (1 Bft) N-NW -0,3 C 2,6 C
26.10.2012 06:00 1,7 C 83 % 1014,9 hPa 0,0 l/m 1,2 km/h (1 Bft) N-NW -0,9 C 1,6 C
26.10.2012 07:00 1,1 C 84 % 1015,2 hPa 0,0 l/m 1,5 km/h (1 Bft) W-SW -1,3 C 1,1 C
26.10.2012 08:00 0,7 C 85 % 1015,5 hPa 0,0 l/m 0,9 km/h (0 Bft) W-NW -1,5 C 0,7 C
26.10.2012 09:00 1,3 C 87 % 1015,6 hPa 0,0 l/m 1,5 km/h (1 Bft) N -0,6 C 1,3 C
26.10.2012 10:00 3,2 C 85 % 1015,9 hPa 0,0 l/m 0,4 km/h (0 Bft) W 1,0 C 3,2 C
26.10.2012 11:00 5,1 C 74 % 1015,7 hPa 0,0 l/m 2,4 km/h (1 Bft) S-SO 0,7 C 5,1 C
26.10.2012 12:00 6,8 C 56 % 1014,9 hPa 0,0 l/m 1,5 km/h (1 Bft) O -1,4 C 6,7 C
26.10.2012 13:00 7,9 C 49 % 1013,9 hPa 0,0 l/m 2,3 km/h (1 Bft) SO -2,3 C 7,9 C
26.10.2012 14:00 7,6 C 48 % 1013,1 hPa 0,0 l/m 2,9 km/h (1 Bft) SO -2,6 C 7,3 C
26.10.2012 15:00 7,4 C 47 % 1012,2 hPa 0,0 l/m 2,5 km/h (1 Bft) SO -3,1 C 7,4 C
26.10.2012 16:00 6,7 C 46 % 1011,4 hPa 0,0 l/m 2,8 km/h (1 Bft) SO -4,0 C 6,6 C
26.10.2012 17:00 5,4 C 54 % 1010,8 hPa 0,0 l/m 0,1 km/h (0 Bft) O-SO -3,1 C 5,4 C
26.10.2012 18:00 4,2 C 60 % 1010,1 hPa 0,0 l/m 0,0 km/h (0 Bft) N -2,9 C 4,2 C
26.10.2012 19:00 3,3 C 63 % 1009,6 hPa 0,0 l/m 0,4 km/h (0 Bft) O-SO -2,9 C 3,3 C
26.10.2012 20:00 2,8 C 66 % 1009,1 hPa 0,0 l/m 1,6 km/h (1 Bft) NO -2,9 C 2,8 C
26.10.2012 21:00 2,1 C 69 % 1008,5 hPa 0,0 l/m 2,1 km/h (1 Bft) O-NO -3,0 C 2,0 C
26.10.2012 22:00 2,0 C 70 % 1007,7 hPa 0,0 l/m 0,4 km/h (0 Bft) O-SO -2,9 C 2,0 C
26.10.2012 23:00 1,8 C 71 % 1006,9 hPa 0,0 l/m 1,3 km/h (1 Bft) O-SO -2,9 C 1,8 C
27.10.2012 00:00 1,5 C 73 % 1006,3 hPa 0,0 l/m 2,0 km/h (1 Bft) O-NO -2,8 C 1,5 C
27.10.2012 01:00 1,3 C 74 % 1005,8 hPa 0,0 l/m 2,0 km/h (1 Bft) O-NO -2,9 C 1,2 C
27.10.2012 02:00 1,2 C 74 % 1005,3 hPa 0,0 l/m 3,0 km/h (1 Bft) NO -2,9 C 1,1 C
27.10.2012 03:00 1,1 C 74 % 1004,7 hPa 0,0 l/m 3,4 km/h (1 Bft) NO -3,0 C 0,8 C
27.10.2012 04:00 0,9 C 74 % 1004,3 hPa 0,0 l/m 4,8 km/h (1 Bft) NO -3,2 C -0,3 C
27.10.2012 05:00 0,9 C 74 % 1004,1 hPa 0,0 l/m 3,4 km/h (1 Bft) O-NO -3,2 C 0,6 C
27.10.2012 06:00 0,9 C 75 % 1004,0 hPa 0,0 l/m 3,7 km/h (1 Bft) NO -3,1 C -0,0 C
27.10.2012 07:00 0,9 C 74 % 1004,1 hPa 0,0 l/m 5,2 km/h (1 Bft) O-NO -3,2 C -0,3 C
27.10.2012 08:00 0,9 C 74 % 1004,4 hPa 0,0 l/m 3,9 km/h (1 Bft) O-NO -3,3 C 0,2 C
27.10.2012 09:00 1,6 C 71 % 1004,8 hPa 0,0 l/m 3,2 km/h (1 Bft) O-NO -3,0 C 1,3 C
27.10.2012 10:00 2,4 C 70 % 1005,1 hPa 0,0 l/m 4,9 km/h (1 Bft) N-NO -2,6 C 1,2 C
27.10.2012 11:00 3,4 C 67 % 1005,6 hPa 0,0 l/m 4,2 km/h (1 Bft) NO -2,3 C 2,8 C
27.10.2012 12:00 4,0 C 63 % 1005,6 hPa 0,0 l/m 6,2 km/h (2 Bft) N-NO -2,4 C 2,7 C
27.10.2012 13:00 5,3 C 56 % 1005,5 hPa 0,0 l/m 4,0 km/h (1 Bft) NO -2,7 C 4,7 C
27.10.2012 14:00 6,3 C 61 % 1005,7 hPa 0,0 l/m 7,0 km/h (2 Bft) N-NO -0,6 C 5,2 C
27.10.2012 15:00 4,6 C 76 % 1006,0 hPa 0,5 l/m 8,2 km/h (2 Bft) N-NO 0,8 C 3,1 C
27.10.2012 16:00 4,1 C 83 % 1006,2 hPa 0,0 l/m 8,3 km/h (2 Bft) N 1,5 C 2,1 C
27.10.2012 17:00 3,8 C 82 % 1006,7 hPa 0,0 l/m 5,4 km/h (1 Bft) NO 1,0 C 2,6 C
27.10.2012 19:00 2,9 C 84 % 1008,5 hPa 74,6 l/m 6,4 km/h (2 Bft) N-NO 0,5 C 1,3 C
27.10.2012 20:00 2,3 C 85 % 1009,1 hPa 0,0 l/m 6,8 km/h (2 Bft) N-NO 0,0 C 0,3 C
27.10.2012 21:00 1,5 C 86 % 1009,6 hPa 0,0 l/m 4,4 km/h (1 Bft) N -0,6 C 0,9 C
27.10.2012 22:00 0,9 C 86 % 1010,2 hPa 0,0 l/m 2,6 km/h (1 Bft) N -1,1 C 0,5 C
27.10.2012 23:00 0,2 C 86 % 1010,4 hPa 0,0 l/m 0,9 km/h (0 Bft) NW -1,8 C 0,2 C
28.10.2012 00:00 -0,2 C 88 % 1010,5 hPa 0,0 l/m 2,6 km/h (1 Bft) N-NO -1,9 C -0,4 C
28.10.2012 01:00 -0,6 C 88 % 1010,8 hPa 0,0 l/m 2,0 km/h (1 Bft) NW -2,3 C -0,6 C
28.10.2012 02:00 -0,9 C 89 % 1011,4 hPa 0,0 l/m 2,5 km/h (1 Bft) N-NW -2,5 C -1,0 C
28.10.2012 03:00 -1,3 C 89 % 1011,9 hPa 0,0 l/m 2,3 km/h (1 Bft) W-NW -2,9 C -1,6 C
28.10.2012 04:00 -1,6 C 89 % 1012,2 hPa 0,0 l/m 1,8 km/h (1 Bft) N-NW -3,1 C -1,6 C
28.10.2012 05:00 -1,6 C 90 % 1012,4 hPa 0,0 l/m 0,2 km/h (0 Bft) W -3,1 C -1,6 C
28.10.2012 06:00 -1,7 C 90 % 1012,7 hPa 0,0 l/m 1,1 km/h (1 Bft) W-NW -3,1 C -1,7 C
28.10.2012 07:00 -1,3 C 91 % 1013,8 hPa 0,0 l/m 1,2 km/h (1 Bft) W-NW -2,5 C -1,4 C
28.10.2012 08:00 -0,6 C 91 % 1014,4 hPa 0,0 l/m 1,3 km/h (1 Bft) W-NW -1,9 C -0,7 C
28.10.2012 09:00 0,6 C 91 % 1014,7 hPa 0,0 l/m 2,6 km/h (1 Bft) NW -0,7 C 0,3 C
28.10.2012 10:00 2,5 C 91 % 1015,0 hPa 0,0 l/m 2,6 km/h (1 Bft) W-SW 1,1 C 1,9 C
28.10.2012 11:00 4,4 C 86 % 1015,2 hPa 0,0 l/m 3,3 km/h (1 Bft) W-NW 2,2 C 4,0 C
28.10.2012 12:00 6,1 C 72 % 1015,2 hPa 0,0 l/m 4,3 km/h (1 Bft) N-NO 1,5 C 5,5 C
28.10.2012 13:00 6,9 C 63 % 1015,3 hPa 0,0 l/m 3,6 km/h (1 Bft) NW 0,4 C 6,5 C
28.10.2012 14:00 7,5 C 58 % 1015,3 hPa 0,0 l/m 3,2 km/h (1 Bft) NW -0,2 C 7,4 C
28.10.2012 15:00 7,2 C 55 % 1015,5 hPa 0,0 l/m 1,9 km/h (1 Bft) N-NO -1,1 C 7,1 C
28.10.2012 16:00 6,1 C 60 % 1015,9 hPa 0,0 l/m 0,1 km/h (0 Bft) N-NW -1,0 C 6,1 C
28.10.2012 17:00 2,8 C 69 % 1016,5 hPa 0,0 l/m 0,0 km/h (0 Bft) N -2,3 C 2,8 C
28.10.2012 18:00 0,8 C 77 % 1017,0 hPa 0,0 l/m 0,1 km/h (0 Bft) W-SW -2,9 C 0,8 C
28.10.2012 19:00 0,2 C 81 % 1017,0 hPa 0,0 l/m 0,0 km/h (0 Bft) N -2,6 C 0,2 C
28.10.2012 20:00 -0,5 C 83 % 1017,4 hPa 0,0 l/m 1,0 km/h (0 Bft) S-SO -3,0 C -0,5 C
28.10.2012 21:00 -1,0 C 84 % 1018,0 hPa 0,0 l/m 1,0 km/h (0 Bft) S-SO -3,4 C -1,0 C
28.10.2012 22:00 -1,1 C 85 % 1018,3 hPa 0,0 l/m 2,7 km/h (1 Bft) S-SO -3,3 C -1,4 C
28.10.2012 23:00 -1,5 C 86 % 1018,4 hPa 0,0 l/m 1,8 km/h (1 Bft) S-SO -3,6 C -1,5 C
Min-Datum _ 28.10.12 26.10.12 27.10.12 - 22.10.12 - 26.10.12 28.10.12
_ Min-Zeit 05:51 16:11 06:36 - 01:16 - 16:26 03:36
Minimum _ -1,8 C 44 % 1003,8 hPa - 0,0 km/h (0 Bft) - -4,6 C -3,5 C
Max-Datum _ 22.10.12 25.10.12 23.10.12 27.10.12 25.10.12 - 22.10.12 22.10.12
_ Max-Zeit 12:36 00:31 11:21 19:21 15:31 - 12:36 12:36
Maximum _ 13,8 C 93 % 1028,6 hPa 74,6 l/m 23,4 km/h
W-NW (4 Bft)
- 12,2 C 13,8 C
Durchschnitt _ 7,7 C 83 % 1017,3 hPa #75,1 l/m 3,4 km/h (1 Bft) O-SO 5,0 C 7,5 C
(c) by David Heller